Jacksonville International Airport
KJAX : now visible

Airfield :











YOU CAN JOIN US ON...

 
LOGIN :

Register | Disclaimer

   EN    FR    IT 

 









Legend :    VFR   Marginal VFR   IFR   Intensive IFR   Very Intensive IFR
Visi :
Ceiling :
>= 8 km
>= 3000ft
5 to 8 km
1000 to 3000 ft
1500m to 5 km
500 to 1000 ft
800 to 1500m
200 to 500 ft
< 800m
< 200 ft
Symbols :   Thunderstorms  Fog  Heavy snow  Heavy precipitations  Wind > 20 kt






- Airport Elevation : 30 ft
- IATA code : JAX


KJAX - Jacksonville International

CURRENT METAR :
  • 211556Z 05012KT 10SM BKN029 BKN060 28/19 A2998 RMK AO2 SLP153 T02780194

EXPIRED METARs :
  • 211456Z 03008G18KT 10SM BKN027 BKN045 26/19 A2998 RMK AO2 SLP152 T02610189 51006
  • 211441Z 03009KT 10SM BKN025 BKN045 27/19 A2998 RMK AO2 T02670189
  • 211356Z 02008KT 10SM SCT020 SCT045 26/20 A2998 RMK AO2 SLP152 T02610200
  • 211256Z 01009KT 10SM FEW020 FEW045 23/19 A2998 RMK AO2 SLP151 T02330194
  • 211156Z 35006KT 10SM FEW020 BKN045 20/18 A2996 RMK AO2 SLP147 T02000183 10200 20172 53016

TAF KJAX
Valid from the 21 at 14:00 until the 22 at 12:00 UTC


211411Z 2114/2212 02009KT P6SM SCT020 SCT035
FM211500 04011G17KT P6SM VCSH BKN025 BKN040
FM211700 06014G21KT P6SM VCSH BKN035 BKN050
FM220000 06005KT P6SM FEW025
TEMPO 2209/2211 5SM BR
KZJX FIR / North America



MET'MAP, your aeronautical weather chart ! - Copyright ORBIFLY December 2007 - Disclaimer

ORBIFLY MET'MAP TEAM :

Programming & Development : Alexandra Zaïnal
Original concept : Baudouin d'Aumeries
Technical & hardware support : Manuel Goepfert
Assistance : Marc-Olivier Méhu




SOURCES & CREDITS :

   NOAA       Earth
Advisory